Time;durP1;ratioP1;P1;durP2;ratioP2;P2;SDS_P1;SDS_P2;PMS_P1;PMS_P2;Temp;Humidity;BMP_temperature;BMP_pressure;BME280_temperature;BME280_humidity;BME280_pressure;Samples;Min_cycle;Max_cycle;Signal;HPM_P1;HPM_P2
2021/03/18 00:01:07;;;;;;;13.93;9.63;;;;;;;2.92;75.22;102505.13;10056489;28;20039;-63
2021/03/18 00:06:05;;;;;;;15.23;10.10;;;;;;;2.89;75.97;102513.69;10056293;28;20055;-65
2021/03/18 00:11:06;;;;;;;19.33;10.93;;;;;;;2.94;75.93;102505.75;10063524;28;20102;-67
2021/03/18 00:16:02;;;;;;;17.75;12.45;;;;;;;2.86;76.42;102506.88;10052056;28;20047;-64
2021/03/18 00:21:00;;;;;;;16.58;11.57;;;;;;;2.92;77.22;102500.59;10053670;28;20392;-65
2021/03/18 00:25:58;;;;;;;21.15;13.10;;;;;;;2.96;77.27;102495.56;10041113;29;20047;-67
2021/03/18 00:30:54;;;;;;;19.23;13.13;;;;;;;2.97;77.52;102491.81;10054320;28;20075;-66
2021/03/18 00:35:50;;;;;;;22.95;13.13;;;;;;;2.99;77.22;102478.88;10053333;28;20055;-68
2021/03/18 00:40:56;;;;;;;22.55;15.70;;;;;;;3.02;77.91;102478.44;10050086;28;20051;-66
2021/03/18 00:45:52;;;;;;;21.20;15.05;;;;;;;3.00;78.11;102467.03;10055175;28;20145;-67
2021/03/18 00:50:52;;;;;;;22.17;14.20;;;;;;;2.94;78.58;102465.22;10055741;28;20431;-67
2021/03/18 00:55:50;;;;;;;20.92;13.23;;;;;;;2.84;78.72;102451.41;10054349;28;20043;-67
2021/03/18 01:00:55;;;;;;;23.77;15.88;;;;;;;3.05;78.74;102456.38;10057235;28;20098;-68
2021/03/18 01:05:59;;;;;;;24.40;16.27;;;;;;;2.98;79.65;102449.41;10044439;28;20059;-67
2021/03/18 01:11:01;;;;;;;26.10;17.83;;;;;;;2.95;80.15;102442.56;10047159;28;20047;-65
2021/03/18 01:16:02;;;;;;;32.25;19.00;;;;;;;2.87;80.63;102442.84;10050351;28;20098;-66
2021/03/18 01:20:58;;;;;;;29.63;19.73;;;;;;;2.81;80.95;102443.72;10056774;28;20495;-68
2021/03/18 01:25:54;;;;;;;28.75;19.45;;;;;;;2.70;81.35;102432.63;10062384;28;20058;-68
2021/03/18 01:30:50;;;;;;;27.02;18.77;;;;;;;2.60;81.55;102440.44;10061594;28;20059;-68
2021/03/18 01:35:48;;;;;;;29.15;20.65;;;;;;;2.67;81.43;102433.09;10066746;28;20067;-68
2021/03/18 01:40:45;;;;;;;35.70;22.67;;;;;;;2.52;82.15;102432.59;10068225;28;20055;-67
2021/03/18 01:45:42;;;;;;;34.40;22.70;;;;;;;2.48;82.11;102431.38;10063953;28;20058;-66
2021/03/18 01:50:40;;;;;;;38.13;24.48;;;;;;;2.30;82.94;102427.59;10059804;28;20053;-66
2021/03/18 01:55:39;;;;;;;35.53;21.63;;;;;;;2.29;82.69;102431.31;10067688;28;20054;-67
2021/03/18 02:00:37;;;;;;;33.50;21.98;;;;;;;2.29;82.58;102431.31;10065242;28;20511;-67
2021/03/18 02:05:34;;;;;;;40.33;24.83;;;;;;;2.30;82.06;102421.38;10062247;28;20129;-68
2021/03/18 02:10:34;;;;;;;43.08;26.27;;;;;;;2.07;83.06;102416.56;10062636;28;20511;-68
2021/03/18 02:15:37;;;;;;;51.20;27.92;;;;;;;1.85;83.12;102408.81;10057444;28;20507;-68
2021/03/18 02:21:01;;;;;;;53.17;26.88;;;;;;;1.81;83.93;102418.41;10062322;28;20058;-68
2021/03/18 02:26:30;;;;;;;50.08;26.27;;;;;;;1.69;84.57;102414.72;10054573;29;20170;-68
2021/03/18 02:31:49;;;;;;;72.53;27.38;;;;;;;1.72;84.23;102408.94;10041350;29;20047;-69
2021/03/18 02:36:49;;;;;;;48.10;26.48;;;;;;;1.64;84.23;102409.16;10068927;28;20043;-67
2021/03/18 02:41:54;;;;;;;57.30;27.17;;;;;;;1.62;84.69;102405.84;10061689;29;20043;-68
2021/03/18 02:46:58;;;;;;;70.20;27.50;;;;;;;1.46;84.98;102399.09;10061885;28;20046;-68
2021/03/18 02:51:56;;;;;;;72.07;27.48;;;;;;;1.63;84.36;102400.25;10065655;28;20046;-67
2021/03/18 02:56:56;;;;;;;43.90;24.73;;;;;;;1.64;84.53;102395.69;10058065;28;20078;-68
2021/03/18 03:01:53;;;;;;;37.80;21.70;;;;;;;1.61;84.33;102390.75;10048788;28;20584;-67
2021/03/18 03:06:52;;;;;;;38.13;20.33;;;;;;;1.56;83.17;102394.09;10051584;28;20117;-67
2021/03/18 03:11:49;;;;;;;43.20;19.35;;;;;;;1.24;83.88;102385.13;10058155;28;20055;-68
2021/03/18 03:16:45;;;;;;;41.83;19.85;;;;;;;1.01;84.45;102386.44;10064112;28;20443;-68
2021/03/18 03:21:44;;;;;;;36.72;18.40;;;;;;;0.89;84.67;102387.34;10062009;28;20051;-68
2021/03/18 03:26:40;;;;;;;30.45;17.75;;;;;;;1.09;84.47;102388.09;10056353;28;20400;-68
2021/03/18 03:31:37;;;;;;;27.98;15.45;;;;;;;0.96;84.47;102391.66;10064865;28;20043;-67
2021/03/18 03:36:34;;;;;;;32.60;14.20;;;;;;;0.80;83.72;102398.31;10046472;29;20055;-68
2021/03/18 03:41:30;;;;;;;24.98;13.18;;;;;;;0.93;83.35;102410.09;10051264;28;20103;-67
2021/03/18 03:46:26;;;;;;;40.47;13.48;;;;;;;0.88;83.05;102408.03;10059362;28;20508;-67
2021/03/18 03:51:31;;;;;;;25.92;12.82;;;;;;;0.55;83.25;102413.50;10060263;28;20086;-69
2021/03/18 03:56:32;;;;;;;;;;;;;;;0.27;84.42;102400.28;10042342;28;20489;-69
2021/03/18 04:01:44;;;;;;;72.22;15.85;;;;;;;0.11;85.02;102405.03;10054391;28;19989;-69
2021/03/18 04:07:03;;;;;;;61.22;16.05;;;;;;;0.17;85.93;102385.38;10060236;28;20050;-67
2021/03/18 04:12:01;;;;;;;31.10;14.95;;;;;;;0.47;85.65;102390.31;10059859;28;20055;-66
2021/03/18 04:17:04;;;;;;;31.80;16.38;;;;;;;0.52;84.81;102387.81;10045542;28;20051;-67
2021/03/18 04:22:03;;;;;;;38.80;17.02;;;;;;;0.63;84.96;102379.13;10048171;28;20079;-67
2021/03/18 04:27:00;;;;;;;26.00;14.52;;;;;;;0.65;85.58;102368.16;10046994;28;20098;-67
2021/03/18 04:31:57;;;;;;;26.33;15.85;;;;;;;0.83;84.64;102368.28;10056760;28;20082;-68
2021/03/18 04:37:13;;;;;;;31.33;14.38;;;;;;;0.79;84.22;102371.59;10053599;28;20049;-68
2021/03/18 04:42:10;;;;;;;41.00;16.13;;;;;;;0.97;84.33;102379.00;10058053;28;20439;-67
2021/03/18 04:47:06;;;;;;;27.00;15.02;;;;;;;1.00;83.79;102374.03;10054844;28;20043;-68
2021/03/18 04:52:03;;;;;;;30.67;16.15;;;;;;;0.96;84.51;102369.28;10045440;28;20043;-68
2021/03/18 04:57:00;;;;;;;24.25;14.25;;;;;;;0.99;84.83;102361.59;10057657;28;20118;-68
2021/03/18 05:01:57;;;;;;;30.10;14.63;;;;;;;0.94;85.28;102358.72;10054167;28;20051;-68
2021/03/18 05:06:55;;;;;;;40.05;15.43;;;;;;;0.80;85.82;102362.50;10051285;28;20048;-68
2021/03/18 05:11:55;;;;;;;43.45;14.45;;;;;;;0.91;85.95;102353.78;10049119;28;20042;-67
2021/03/18 05:16:52;;;;;;;42.85;15.50;;;;;;;0.92;86.61;102350.03;10047462;29;20522;-68
2021/03/18 05:21:50;;;;;;;33.58;14.32;;;;;;;1.12;85.94;102338.34;10053326;28;20062;-67
2021/03/18 05:26:46;;;;;;;31.45;14.07;;;;;;;1.11;86.01;102342.06;10049565;28;20075;-67
2021/03/18 05:31:43;;;;;;;32.10;12.65;;;;;;;1.13;86.34;102331.91;10049834;29;20171;-68
2021/03/18 05:36:40;;;;;;;31.15;14.57;;;;;;;0.96;87.86;102329.72;10058645;28;20091;-66
2021/03/18 05:41:36;;;;;;;61.03;15.88;;;;;;;1.23;87.34;102313.41;10052350;28;20460;-66
2021/03/18 05:46:36;;;;;;;43.47;14.60;;;;;;;1.29;87.59;102311.72;10054833;28;20048;-67
2021/03/18 05:51:33;;;;;;;33.80;14.80;;;;;;;1.47;87.15;102309.94;10048215;28;20573;-66
2021/03/18 05:56:30;;;;;;;33.88;15.63;;;;;;;1.62;86.76;102311.50;10053975;28;20057;-66
2021/03/18 06:01:26;;;;;;;47.92;14.82;;;;;;;1.63;86.13;102318.56;10058091;28;20084;-65
2021/03/18 06:06:25;;;;;;;36.70;14.23;;;;;;;1.50;86.79;102318.63;10058979;29;20110;-65
2021/03/18 06:11:21;;;;;;;34.42;15.20;;;;;;;1.67;86.95;102304.41;10057728;28;20106;-66
2021/03/18 06:16:21;;;;;;;37.60;14.88;;;;;;;1.66;86.90;102318.91;10049199;29;20047;-66
2021/03/18 06:21:17;;;;;;;44.80;17.35;;;;;;;1.43;87.38;102329.47;10050849;29;20067;-66
2021/03/18 06:26:32;;;;;;;33.90;14.98;;;;;;;1.50;88.03;102329.41;10041884;29;20051;-67
2021/03/18 06:31:30;;;;;;;37.15;15.93;;;;;;;1.84;87.31;102326.25;10052002;28;20142;-64
2021/03/18 06:36:32;;;;;;;34.05;15.30;;;;;;;1.82;86.78;102322.13;10057741;28;20135;-67
2021/03/18 06:41:42;;;;;;;40.78;15.85;;;;;;;1.85;86.75;102311.72;10049773;28;20052;-67
2021/03/18 06:46:39;;;;;;;38.17;15.57;;;;;;;1.93;86.16;102313.34;10051177;28;20075;-66
2021/03/18 06:51:35;;;;;;;31.85;15.98;;;;;;;2.02;86.79;102312.00;10056196;29;20047;-67
2021/03/18 06:56:32;;;;;;;35.45;15.10;;;;;;;2.06;86.31;102304.28;10057650;28;20083;-66
2021/03/18 07:01:32;;;;;;;34.25;16.95;;;;;;;2.14;86.56;102308.59;10046780;29;20102;-66
2021/03/18 07:06:31;;;;;;;33.88;14.88;;;;;;;2.24;86.18;102309.72;10052795;28;20055;-66
2021/03/18 07:11:27;;;;;;;35.95;15.43;;;;;;;2.34;85.65;102302.97;10047465;28;20058;-67
2021/03/18 07:16:23;;;;;;;34.10;16.27;;;;;;;2.49;85.61;102300.75;10044460;28;20102;-67
2021/03/18 07:21:19;;;;;;;38.72;17.48;;;;;;;2.45;84.96;102300.34;10052547;28;20051;-66
2021/03/18 07:26:23;;;;;;;35.30;16.60;;;;;;;2.52;85.01;102300.28;10042021;28;20051;-66
2021/03/18 07:31:21;;;;;;;;;;;;;;;2.52;85.32;102311.91;10058568;28;20047;-67
2021/03/18 07:36:17;;;;;;;26.05;12.80;;;;;;;2.38;85.40;102304.19;10054202;29;19933;-67
2021/03/18 07:41:15;;;;;;;24.50;13.10;;;;;;;2.40;85.23;102307.50;10054271;28;20047;-66
2021/03/18 07:46:16;;;;;;;32.63;14.38;;;;;;;2.34;85.16;102308.38;10048811;28;20289;-67
2021/03/18 07:51:15;;;;;;;32.90;15.05;;;;;;;2.44;85.44;102297.91;10059585;28;20572;-67
2021/03/18 07:56:13;;;;;;;31.08;13.88;;;;;;;2.24;85.63;102298.91;10050638;28;20094;-67
2021/03/18 08:01:27;;;;;;;33.22;14.68;;;;;;;2.22;85.99;102295.59;10048549;28;20052;-66
2021/03/18 08:06:39;;;;;;;30.83;13.45;;;;;;;2.27;86.44;102292.25;10049730;28;20757;-66
2021/03/18 08:11:36;;;;;;;33.58;12.20;;;;;;;2.29;85.94;102284.75;10051710;28;20148;-67
2021/03/18 08:16:33;;;;;;;33.08;16.05;;;;;;;2.47;85.50;102287.47;10051622;28;20467;-66
2021/03/18 08:21:42;;;;;;;30.98;14.18;;;;;;;2.44;85.72;102281.69;10056610;28;20070;-67
2021/03/18 08:26:43;;;;;;;28.50;14.25;;;;;;;2.51;85.27;102293.25;10047071;28;20066;-63
2021/03/18 08:31:47;;;;;;;30.33;13.52;;;;;;;2.60;84.88;102281.09;10048977;28;20063;-66
2021/03/18 08:36:58;;;;;;;30.35;12.95;;;;;;;2.65;84.36;102278.53;10045663;28;20043;-66
2021/03/18 08:41:53;;;;;;;28.05;14.38;;;;;;;2.91;84.18;102271.13;10056698;28;20047;-67
2021/03/18 08:46:58;;;;;;;22.48;12.32;;;;;;;3.16;83.78;102273.72;10057471;29;20047;-67
2021/03/18 08:51:58;;;;;;;28.15;13.68;;;;;;;3.32;82.00;102266.84;10051261;28;20841;-68
2021/03/18 08:56:54;;;;;;;23.42;11.65;;;;;;;3.38;81.31;102274.00;10043626;28;20051;-66
2021/03/18 09:02:06;;;;;;;29.40;13.05;;;;;;;3.42;81.19;102272.50;10053451;28;20047;-66
2021/03/18 09:07:04;;;;;;;32.17;13.70;;;;;;;3.34;81.35;102275.50;10049999;28;20070;-67
2021/03/18 09:12:02;;;;;;;25.23;12.57;;;;;;;3.63;79.40;102281.94;10050612;28;20098;-67
2021/03/18 09:17:09;;;;;;;20.55;10.63;;;;;;;3.75;79.97;102279.25;10042793;28;20056;-67
2021/03/18 09:22:05;;;;;;;22.60;9.73;;;;;;;3.74;78.50;102286.53;10044078;29;20078;-67
2021/03/18 09:27:05;;;;;;;20.35;10.07;;;;;;;3.91;78.06;102280.44;10045839;28;20051;-67
2021/03/18 09:32:06;;;;;;;18.75;9.50;;;;;;;3.91;77.72;102286.66;10060167;28;20141;-67
2021/03/18 09:37:03;;;;;;;23.55;9.48;;;;;;;3.92;78.73;102277.50;10050643;28;20071;-67
2021/03/18 09:42:02;;;;;;;18.83;8.57;;;;;;;4.10;78.15;102278.44;10051207;28;20159;-64
2021/03/18 09:47:05;;;;;;;20.25;9.82;;;;;;;4.24;77.19;102268.19;10062132;28;20047;-67
2021/03/18 09:52:07;;;;;;;22.33;10.00;;;;;;;4.30;77.18;102268.06;10059846;28;20530;-67
2021/03/18 09:57:06;;;;;;;16.00;8.55;;;;;;;4.04;76.29;102257.72;10057175;28;20558;-67
2021/03/18 10:02:04;;;;;;;17.58;8.57;;;;;;;4.07;75.97;102255.38;10059941;28;20148;-67
2021/03/18 10:07:00;;;;;;;18.55;8.82;;;;;;;4.42;76.01;102249.91;10057379;28;20052;-66
2021/03/18 10:11:56;;;;;;;15.50;8.23;;;;;;;4.47;74.90;102251.06;10062641;28;20151;-66
2021/03/18 10:16:53;;;;;;;15.57;7.25;;;;;;;4.69;74.33;102245.81;10056696;28;20821;-66
2021/03/18 10:21:50;;;;;;;14.43;6.65;;;;;;;4.90;73.75;102233.47;10059554;28;20047;-66
2021/03/18 10:26:48;;;;;;;18.48;7.45;;;;;;;4.89;72.50;102238.09;10049269;29;20052;-67
2021/03/18 10:31:44;;;;;;;16.88;7.15;;;;;;;5.04;72.26;102224.81;10054762;28;20051;-67
2021/03/18 10:36:41;;;;;;;13.35;7.00;;;;;;;4.90;72.27;102228.06;10058381;28;20470;-67
2021/03/18 10:41:52;;;;;;;14.52;7.68;;;;;;;4.64;72.63;102219.44;10055340;28;20047;-66
2021/03/18 10:46:49;;;;;;;13.40;7.18;;;;;;;4.68;73.68;102207.06;10059810;28;20067;-67
2021/03/18 10:51:55;;;;;;;13.10;6.95;;;;;;;4.61;72.59;102203.69;10053258;28;20069;-66
2021/03/18 10:56:51;;;;;;;11.98;5.97;;;;;;;4.92;72.06;102198.81;10046326;28;20138;-65
2021/03/18 11:02:02;;;;;;;11.02;6.10;;;;;;;5.44;68.76;102196.75;10053714;28;20425;-65
2021/03/18 11:06:58;;;;;;;14.77;6.60;;;;;;;5.97;66.16;102183.72;10054801;28;20628;-67
2021/03/18 11:11:57;;;;;;;12.13;5.20;;;;;;;6.30;65.67;102187.41;10054890;28;20044;-67
2021/03/18 11:17:08;;;;;;;10.10;4.70;;;;;;;6.91;64.34;102182.63;10046420;29;20043;-66
2021/03/18 11:22:05;;;;;;;10.73;6.13;;;;;;;7.38;61.89;102164.81;10046219;28;20043;-66
2021/03/18 11:27:04;;;;;;;9.32;5.68;;;;;;;7.31;60.22;102162.31;10043378;29;20050;-67
2021/03/18 11:32:05;;;;;;;10.05;4.80;;;;;;;7.74;59.77;102152.25;10056394;28;20120;-67
2021/03/18 11:37:05;;;;;;;11.45;5.60;;;;;;;7.91;58.01;102159.41;10057288;28;20051;-67
2021/03/18 11:42:01;;;;;;;9.90;5.00;;;;;;;8.05;58.25;102157.03;10054335;28;20043;-67
2021/03/18 11:47:05;;;;;;;13.52;7.00;;;;;;;7.22;57.13;102150.28;10057202;29;20137;-66
2021/03/18 11:52:03;;;;;;;10.25;5.65;;;;;;;7.31;57.66;102131.53;10051271;28;20043;-66
2021/03/18 11:56:59;;;;;;;10.93;5.93;;;;;;;7.43;59.42;102128.66;10062069;28;20062;-66
2021/03/18 12:01:55;;;;;;;9.00;5.97;;;;;;;7.62;57.77;102110.81;10048210;28;20135;-67
2021/03/18 12:06:52;;;;;;;7.75;4.72;;;;;;;8.30;55.15;102107.25;10057162;28;20051;-67
2021/03/18 12:11:48;;;;;;;9.25;4.75;;;;;;;8.00;54.79;102106.06;10066150;28;20051;-67
2021/03/18 12:16:44;;;;;;;11.07;5.03;;;;;;;7.20;55.98;102092.56;10044760;28;21762;-67
2021/03/18 12:21:40;;;;;;;10.10;6.00;;;;;;;6.82;59.17;102089.00;10058614;28;20047;-67
2021/03/18 12:26:41;;;;;;;11.30;5.97;;;;;;;6.32;62.96;102096.41;10051111;28;20059;-66
2021/03/18 12:31:37;;;;;;;11.57;6.50;;;;;;;5.88;65.78;102095.59;10056199;28;20212;-65
2021/03/18 12:36:36;;;;;;;10.07;6.05;;;;;;;5.69;66.72;102085.06;10039964;29;20074;-67
2021/03/18 12:41:33;;;;;;;17.15;6.80;;;;;;;5.53;68.15;102085.94;10043682;28;20082;-65
2021/03/18 12:46:29;;;;;;;12.35;6.55;;;;;;;5.48;68.97;102077.72;10053938;28;20074;-67
2021/03/18 12:51:25;;;;;;;12.98;6.65;;;;;;;5.42;69.03;102079.53;10053189;28;20058;-67
2021/03/18 12:56:21;;;;;;;9.77;5.35;;;;;;;5.32;67.18;102071.25;10057322;28;20039;-64
2021/03/18 13:01:17;;;;;;;10.93;5.05;;;;;;;5.32;67.08;102062.31;10050173;29;20419;-68
2021/03/18 13:06:13;;;;;;;11.13;4.75;;;;;;;5.44;67.01;102054.88;10048729;28;20503;-67
2021/03/18 13:11:09;;;;;;;11.48;5.50;;;;;;;5.47;66.31;102048.94;10050052;29;20055;-63
2021/03/18 13:16:05;;;;;;;10.45;5.55;;;;;;;5.55;66.77;102045.81;10061495;28;20047;-66
2021/03/18 13:21:02;;;;;;;11.55;6.18;;;;;;;5.63;66.14;102042.63;10060577;28;20511;-67
2021/03/18 13:25:58;;;;;;;10.73;5.13;;;;;;;5.64;66.66;102038.03;10061599;28;20135;-67
2021/03/18 13:30:54;;;;;;;8.82;4.60;;;;;;;5.68;66.13;102029.13;10056879;28;20562;-66
2021/03/18 13:35:51;;;;;;;11.80;4.45;;;;;;;5.73;66.19;102013.97;10062582;28;20075;-66
2021/03/18 13:40:49;;;;;;;10.55;4.40;;;;;;;5.69;65.79;102014.50;10055980;28;20412;-67
2021/03/18 13:45:46;;;;;;;11.57;5.55;;;;;;;5.80;65.84;102015.44;10060962;28;20047;-66
2021/03/18 13:50:48;;;;;;;8.20;4.78;;;;;;;5.82;65.42;102007.03;10061720;28;20064;-64
2021/03/18 13:55:44;;;;;;;10.55;4.60;;;;;;;5.85;65.15;102011.97;10066038;28;20084;-67
2021/03/18 14:00:41;;;;;;;7.88;4.50;;;;;;;5.92;65.13;102001.75;10063995;28;20150;-66
2021/03/18 14:05:39;;;;;;;10.32;4.25;;;;;;;5.86;65.33;102000.03;10065015;29;20130;-66
2021/03/18 14:10:35;;;;;;;10.75;5.28;;;;;;;5.88;67.34;101995.16;10060685;28;20048;-67
2021/03/18 14:15:31;;;;;;;9.20;5.07;;;;;;;5.99;67.92;101990.72;10061253;28;20055;-67
2021/03/18 14:20:29;;;;;;;8.77;5.20;;;;;;;5.90;65.09;101982.97;10052505;29;20071;-68
2021/03/18 14:25:26;;;;;;;10.90;5.22;;;;;;;5.81;66.40;101978.25;10067435;28;20523;-67
2021/03/18 14:30:27;;;;;;;11.18;4.60;;;;;;;5.74;66.95;101969.50;10058871;28;20090;-66
2021/03/18 14:35:23;;;;;;;11.32;5.38;;;;;;;5.87;65.70;101982.66;10058737;29;20106;-68
2021/03/18 14:40:21;;;;;;;9.45;4.43;;;;;;;5.82;64.76;101971.75;10045058;29;20564;-67
2021/03/18 14:45:32;;;;;;;9.73;4.95;;;;;;;5.95;65.60;101976.00;10063535;28;20066;-66
2021/03/18 14:50:28;;;;;;;10.40;5.38;;;;;;;6.03;65.97;101962.75;10057666;28;20679;-68
2021/03/18 14:55:24;;;;;;;8.98;5.38;;;;;;;6.13;65.19;101953.06;10060869;28;20054;-67
2021/03/18 15:00:21;;;;;;;9.50;5.20;;;;;;;6.09;63.37;101959.03;10054512;28;20057;-67
2021/03/18 15:05:17;;;;;;;10.77;5.15;;;;;;;5.93;62.97;101942.84;10056318;28;20098;-63
2021/03/18 15:10:14;;;;;;;9.02;5.95;;;;;;;5.92;62.56;101939.31;10063601;28;20078;-66
2021/03/18 15:15:12;;;;;;;9.50;5.57;;;;;;;5.88;62.06;101947.13;10051457;28;20048;-65
2021/03/18 15:20:12;;;;;;;9.38;5.75;;;;;;;5.98;63.77;101941.00;10058208;28;20145;-65
2021/03/18 15:25:10;;;;;;;10.88;6.47;;;;;;;6.04;64.02;101923.69;10051776;28;20051;-66
2021/03/18 15:30:09;;;;;;;9.20;5.50;;;;;;;6.09;63.69;101921.00;10061833;29;20058;-67
2021/03/18 15:35:07;;;;;;;11.48;6.40;;;;;;;6.14;61.30;101916.72;10055829;28;20054;-65
2021/03/18 15:40:09;;;;;;;13.77;6.75;;;;;;;6.06;61.97;101918.81;10052916;28;20649;-67
2021/03/18 15:45:07;;;;;;;10.40;5.82;;;;;;;6.05;61.96;101913.66;10059307;28;20440;-67
2021/03/18 15:50:06;;;;;;;11.35;6.72;;;;;;;6.24;63.06;101900.50;10055439;28;20059;-68
2021/03/18 15:55:03;;;;;;;14.15;6.22;;;;;;;6.02;62.82;101898.69;10043972;28;20135;-68
2021/03/18 16:00:00;;;;;;;10.32;5.97;;;;;;;6.12;63.27;101897.97;10064041;28;20055;-65
2021/03/18 16:04:56;;;;;;;9.90;5.97;;;;;;;6.25;63.64;101886.66;10047826;28;20130;-67
2021/03/18 16:09:55;;;;;;;12.70;6.20;;;;;;;6.22;62.17;101886.34;10061173;28;20102;-66
2021/03/18 16:14:51;;;;;;;11.32;5.95;;;;;;;6.26;62.86;101876.59;10057943;28;20150;-67
2021/03/18 16:19:47;;;;;;;10.82;5.65;;;;;;;6.14;60.73;101875.97;10053343;29;20051;-67
2021/03/18 16:24:43;;;;;;;9.07;3.90;;;;;;;6.19;61.19;101886.88;10055053;28;20079;-66
2021/03/18 16:29:40;;;;;;;10.25;4.82;;;;;;;6.00;59.94;101884.56;10057673;29;20049;-67
2021/03/18 16:34:36;;;;;;;8.25;3.10;;;;;;;5.88;61.05;101897.44;10053764;28;20062;-66
2021/03/18 16:39:33;;;;;;;5.30;2.20;;;;;;;5.90;61.11;101890.69;10056628;28;20106;-65
2021/03/18 16:44:29;;;;;;;7.20;1.88;;;;;;;5.77;57.58;101895.72;10052362;28;20142;-67
2021/03/18 16:49:26;;;;;;;4.60;1.65;;;;;;;5.68;55.56;101898.06;10050340;28;20582;-68
2021/03/18 16:54:22;;;;;;;3.08;1.25;;;;;;;5.62;58.83;101889.06;10058840;28;20480;-67
2021/03/18 16:59:18;;;;;;;5.43;1.63;;;;;;;5.64;57.42;101895.06;10062118;28;20050;-67
2021/03/18 17:04:14;;;;;;;2.55;0.95;;;;;;;5.59;54.01;101903.16;10053024;29;20050;-65
2021/03/18 17:09:10;;;;;;;3.38;0.90;;;;;;;5.43;51.25;101896.72;10042854;28;20051;-64
2021/03/18 17:14:07;;;;;;;3.22;0.80;;;;;;;5.17;48.03;101898.31;10051521;28;20142;-66
2021/03/18 17:19:03;;;;;;;1.50;0.47;;;;;;;5.20;54.15;101908.66;10048832;29;20069;-67
2021/03/18 17:24:00;;;;;;;2.33;0.63;;;;;;;5.20;50.23;101908.66;10052279;28;20039;-67
2021/03/18 17:28:55;;;;;;;3.03;0.70;;;;;;;5.10;48.79;101903.09;10050874;28;20134;-66
2021/03/18 17:33:54;;;;;;;3.28;0.73;;;;;;;5.18;51.52;101910.81;10043882;29;20419;-66
2021/03/18 17:38:50;;;;;;;2.88;0.80;;;;;;;4.95;49.26;101916.47;10049030;28;20389;-65
2021/03/18 17:43:47;;;;;;;2.33;0.50;;;;;;;5.08;50.79;101916.09;10054587;28;20078;-66
2021/03/18 17:48:43;;;;;;;5.63;1.92;;;;;;;5.16;50.32;101929.22;10042927;28;20059;-66
2021/03/18 17:53:52;;;;;;;4.30;1.58;;;;;;;4.96;50.20;101931.66;10053426;28;20557;-67
2021/03/18 17:58:49;;;;;;;4.18;1.08;;;;;;;5.02;50.49;101939.59;10054012;28;20043;-71
2021/03/18 18:03:46;;;;;;;5.28;1.20;;;;;;;5.01;50.51;101943.41;10066569;28;20102;-65
2021/03/18 18:08:43;;;;;;;4.82;1.30;;;;;;;4.98;51.53;101937.66;10058074;28;20074;-64
2021/03/18 18:13:39;;;;;;;3.15;1.30;;;;;;;4.63;50.66;101944.19;10058536;28;20107;-65
2021/03/18 18:18:35;;;;;;;3.22;1.05;;;;;;;4.63;51.28;101944.19;10047709;29;20047;-68
2021/03/18 18:23:31;;;;;;;4.00;1.40;;;;;;;4.63;52.96;101936.06;10052986;28;20507;-66
2021/03/18 18:28:27;;;;;;;5.13;1.52;;;;;;;4.49;53.78;101945.59;10056677;28;20047;-64
2021/03/18 18:33:27;;;;;;;3.65;1.58;;;;;;;4.31;54.27;101961.00;10054266;29;20059;-63
2021/03/18 18:38:24;;;;;;;4.88;1.55;;;;;;;4.25;55.13;101956.59;10053851;28;20110;-67
2021/03/18 18:43:21;;;;;;;4.47;1.60;;;;;;;4.12;54.84;101946.88;10048464;28;20536;-66
2021/03/18 18:48:17;;;;;;;4.63;1.30;;;;;;;3.95;54.78;101949.56;10052645;28;20040;-66
2021/03/18 18:53:18;;;;;;;4.25;1.70;;;;;;;3.80;55.91;101954.69;10048910;28;20043;-65
2021/03/18 18:58:14;;;;;;;7.35;2.13;;;;;;;3.75;56.05;101946.50;10059782;28;20043;-65
2021/03/18 19:03:10;;;;;;;4.18;1.42;;;;;;;3.65;56.92;101941.72;10052765;28;20412;-65
2021/03/18 19:08:07;;;;;;;4.47;1.58;;;;;;;3.61;56.55;101939.72;10064008;28;20046;-66
2021/03/18 19:13:04;;;;;;;6.28;2.00;;;;;;;3.50;57.07;101934.09;10049775;28;20043;-66
2021/03/18 19:18:02;;;;;;;7.07;1.95;;;;;;;3.35;57.71;101937.34;10039918;28;20051;-66
2021/03/18 19:22:59;;;;;;;3.65;1.50;;;;;;;3.28;58.08;101946.66;10053131;28;20039;-66
2021/03/18 19:27:56;;;;;;;5.22;1.65;;;;;;;3.19;59.12;101953.50;10044853;28;20434;-66
2021/03/18 19:32:52;;;;;;;6.32;2.50;;;;;;;3.17;59.79;101951.00;10056671;28;20082;-65
2021/03/18 19:37:49;;;;;;;4.70;1.75;;;;;;;2.98;58.41;101953.03;10047853;28;20427;-67
2021/03/18 19:42:46;;;;;;;10.85;2.00;;;;;;;2.93;60.53;101953.75;10053925;28;20074;-66
2021/03/18 19:47:42;;;;;;;7.50;2.50;;;;;;;2.97;60.27;101945.16;10059586;28;20584;-68
2021/03/18 19:52:39;;;;;;;5.03;2.13;;;;;;;2.86;60.75;101949.53;10058785;28;20154;-66
2021/03/18 19:57:35;;;;;;;6.22;2.20;;;;;;;2.74;60.34;101971.97;10048315;28;20614;-66
2021/03/18 20:02:31;;;;;;;4.90;2.33;;;;;;;2.70;61.71;101954.56;10062229;28;20051;-65
2021/03/18 20:07:27;;;;;;;7.53;2.30;;;;;;;2.60;61.13;101967.84;10045825;28;20055;-65
2021/03/18 20:12:24;;;;;;;8.32;2.65;;;;;;;2.58;61.42;101959.16;10049203;28;20059;-66
2021/03/18 20:17:20;;;;;;;5.43;2.50;;;;;;;2.45;61.79;101953.97;10051588;28;20052;-67
2021/03/18 20:22:16;;;;;;;7.00;2.55;;;;;;;2.41;61.24;101958.19;10056127;28;20053;-66
2021/03/18 20:27:12;;;;;;;6.47;2.20;;;;;;;2.35;61.93;101964.53;10047285;28;20520;-65
2021/03/18 20:32:08;;;;;;;4.82;2.03;;;;;;;2.34;61.39;101979.06;10049981;28;20043;-65
2021/03/18 20:37:19;;;;;;;5.15;1.90;;;;;;;2.29;62.19;101972.47;10043092;28;20409;-63
2021/03/18 20:42:15;;;;;;;4.35;1.92;;;;;;;2.15;62.31;101973.75;10044679;28;20047;-66
2021/03/18 20:47:11;;;;;;;6.05;2.13;;;;;;;2.16;61.59;101961.91;10061407;28;22431;-66
2021/03/18 20:52:07;;;;;;;5.35;2.25;;;;;;;2.04;63.06;101971.81;10043805;28;20048;-67
2021/03/18 20:57:03;;;;;;;4.50;2.00;;;;;;;2.06;62.88;101975.13;10053252;28;20051;-67
2021/03/18 21:01:59;;;;;;;4.18;1.88;;;;;;;1.93;62.03;101975.31;10057752;28;20052;-65
2021/03/18 21:06:56;;;;;;;4.85;1.75;;;;;;;2.00;63.23;101976.06;10049858;29;20137;-65
2021/03/18 21:11:52;;;;;;;5.53;1.90;;;;;;;1.81;63.15;101976.09;10048231;28;20217;-66
2021/03/18 21:16:49;;;;;;;6.03;2.45;;;;;;;1.88;63.46;101974.13;10046009;28;20147;-66
2021/03/18 21:21:45;;;;;;;5.93;2.22;;;;;;;1.88;62.98;101981.38;10053973;28;20459;-66
2021/03/18 21:26:42;;;;;;;5.00;1.88;;;;;;;1.88;63.74;101978.69;10043787;28;20050;-65
2021/03/18 21:31:38;;;;;;;5.68;1.70;;;;;;;1.83;63.55;101989.34;10051550;28;20059;-65
2021/03/18 21:36:35;;;;;;;4.90;1.90;;;;;;;1.79;64.49;101993.56;10059407;28;20055;-68
2021/03/18 21:41:31;;;;;;;5.57;1.85;;;;;;;1.72;64.24;102006.28;10047288;28;20606;-67
2021/03/18 21:46:28;;;;;;;4.30;1.75;;;;;;;1.60;64.85;102011.63;10056209;28;20087;-67
2021/03/18 21:51:24;;;;;;;5.45;2.03;;;;;;;1.50;65.42;102014.03;10068953;28;20106;-66
2021/03/18 21:56:20;;;;;;;5.38;2.17;;;;;;;1.49;65.56;102017.78;10053821;28;20526;-68
2021/03/18 22:01:17;;;;;;;5.80;1.95;;;;;;;1.50;66.01;102022.94;10057109;29;20052;-68
2021/03/18 22:06:14;;;;;;;7.25;1.98;;;;;;;1.51;65.59;102024.59;10048204;29;20171;-68
2021/03/18 22:11:10;;;;;;;5.85;2.03;;;;;;;1.42;66.37;102015.97;10059661;28;20050;-67
2021/03/18 22:16:06;;;;;;;6.60;2.03;;;;;;;1.40;66.46;102012.69;10056470;28;20043;-67
2021/03/18 22:21:05;;;;;;;3.90;1.80;;;;;;;1.40;66.46;102006.47;10066651;28;20039;-68
2021/03/18 22:26:01;;;;;;;8.05;1.90;;;;;;;1.42;66.25;102010.59;10063559;28;20048;-68
2021/03/18 22:30:57;;;;;;;6.07;2.00;;;;;;;1.42;66.79;102010.59;10061166;28;20049;-67
2021/03/18 22:35:53;;;;;;;6.88;2.03;;;;;;;1.30;66.66;102012.41;10058505;28;20043;-68
2021/03/18 22:40:49;;;;;;;5.90;2.00;;;;;;;1.22;67.49;102015.38;10057914;28;20664;-68
2021/03/18 22:45:45;;;;;;;3.97;1.80;;;;;;;1.16;67.71;102027.03;10059571;28;20095;-67
2021/03/18 22:50:41;;;;;;;5.75;2.10;;;;;;;1.20;67.67;102022.84;10068450;28;20046;-68